sensor_id;sensor_type;location;lat;lon;timestamp;temperature;humidity
38398;DHT22;24179;52.094;4.408;2023-09-19T00:51:35;16.30;99.90
38398;DHT22;24179;52.094;4.408;2023-09-19T00:54:36;16.40;99.90
38398;DHT22;24179;52.094;4.408;2023-09-19T00:57:38;16.40;99.90
38398;DHT22;24179;52.094;4.408;2023-09-19T01:00:38;16.50;99.90
38398;DHT22;24179;52.094;4.408;2023-09-19T01:03:41;16.50;99.90
38398;DHT22;24179;52.094;4.408;2023-09-19T01:06:42;16.50;99.90
38398;DHT22;24179;52.094;4.408;2023-09-19T01:09:42;16.40;99.90
38398;DHT22;24179;52.094;4.408;2023-09-19T01:22:37;16.40;99.90
38398;DHT22;24179;52.094;4.408;2023-09-19T01:28:51;16.50;99.90
38398;DHT22;24179;52.094;4.408;2023-09-19T01:31:54;16.50;99.90
38398;DHT22;24179;52.094;4.408;2023-09-19T01:34:56;16.50;99.90
38398;DHT22;24179;52.094;4.408;2023-09-19T01:38:04;16.60;99.90
38398;DHT22;24179;52.094;4.408;2023-09-19T01:41:07;16.60;99.90
38398;DHT22;24179;52.094;4.408;2023-09-19T01:44:09;16.60;99.90
38398;DHT22;24179;52.094;4.408;2023-09-19T01:47:19;16.70;99.90
38398;DHT22;24179;52.094;4.408;2023-09-19T01:50:46;16.60;99.90
38398;DHT22;24179;52.094;4.408;2023-09-19T01:53:51;16.50;99.90
38398;DHT22;24179;52.094;4.408;2023-09-19T01:56:57;16.50;99.90
38398;DHT22;24179;52.094;4.408;2023-09-19T02:00:06;16.50;99.90
38398;DHT22;24179;52.094;4.408;2023-09-19T02:03:10;16.40;99.90
38398;DHT22;24179;52.094;4.408;2023-09-19T02:06:15;16.50;99.90
38398;DHT22;24179;52.094;4.408;2023-09-19T02:09:16;16.40;99.90
38398;DHT22;24179;52.094;4.408;2023-09-19T02:12:16;16.30;99.90
38398;DHT22;24179;52.094;4.408;2023-09-19T02:15:16;16.20;99.90
38398;DHT22;24179;52.094;4.408;2023-09-19T02:18:18;16.20;99.90
38398;DHT22;24179;52.094;4.408;2023-09-19T02:21:20;16.20;99.90
38398;DHT22;24179;52.094;4.408;2023-09-19T02:24:22;16.20;99.90
38398;DHT22;24179;52.094;4.408;2023-09-19T02:27:27;16.20;99.90
38398;DHT22;24179;52.094;4.408;2023-09-19T02:30:27;16.20;99.90
38398;DHT22;24179;52.094;4.408;2023-09-19T02:33:28;16.30;99.90
38398;DHT22;24179;52.094;4.408;2023-09-19T02:36:32;16.30;99.90
38398;DHT22;24179;52.094;4.408;2023-09-19T02:39:33;16.40;99.90
38398;DHT22;24179;52.094;4.408;2023-09-19T02:42:33;16.50;99.90
38398;DHT22;24179;52.094;4.408;2023-09-19T02:45:36;16.60;99.90
38398;DHT22;24179;52.094;4.408;2023-09-19T02:48:37;16.60;99.90
38398;DHT22;24179;52.094;4.408;2023-09-19T02:51:38;16.60;99.90
38398;DHT22;24179;52.094;4.408;2023-09-19T02:54:39;16.60;99.90
38398;DHT22;24179;52.094;4.408;2023-09-19T02:57:40;16.70;99.90
38398;DHT22;24179;52.094;4.408;2023-09-19T03:00:45;16.70;99.90
38398;DHT22;24179;52.094;4.408;2023-09-19T03:03:48;16.70;99.90
38398;DHT22;24179;52.094;4.408;2023-09-19T03:07:08;16.60;99.90
38398;DHT22;24179;52.094;4.408;2023-09-19T03:10:11;16.60;99.90
38398;DHT22;24179;52.094;4.408;2023-09-19T03:13:14;16.60;99.90
38398;DHT22;24179;52.094;4.408;2023-09-19T03:16:15;16.60;99.90
38398;DHT22;24179;52.094;4.408;2023-09-19T03:19:15;16.70;99.90
38398;DHT22;24179;52.094;4.408;2023-09-19T03:22:16;16.70;99.90
38398;DHT22;24179;52.094;4.408;2023-09-19T03:25:18;16.60;99.90
38398;DHT22;24179;52.094;4.408;2023-09-19T03:28:20;16.70;99.90
38398;DHT22;24179;52.094;4.408;2023-09-19T03:31:21;16.70;99.90
38398;DHT22;24179;52.094;4.408;2023-09-19T03:34:25;16.70;99.90
38398;DHT22;24179;52.094;4.408;2023-09-19T03:37:25;16.50;99.90
38398;DHT22;24179;52.094;4.408;2023-09-19T03:40:26;16.60;99.90
38398;DHT22;24179;52.094;4.408;2023-09-19T03:43:27;16.60;99.90
38398;DHT22;24179;52.094;4.408;2023-09-19T03:46:27;16.70;99.90
38398;DHT22;24179;52.094;4.408;2023-09-19T03:49:28;16.60;99.90
38398;DHT22;24179;52.094;4.408;2023-09-19T03:52:29;16.70;99.90
38398;DHT22;24179;52.094;4.408;2023-09-19T03:55:29;16.60;99.90
38398;DHT22;24179;52.094;4.408;2023-09-19T03:58:32;16.60;99.90
38398;DHT22;24179;52.094;4.408;2023-09-19T04:01:35;16.60;99.90
38398;DHT22;24179;52.094;4.408;2023-09-19T04:04:35;16.60;99.90
38398;DHT22;24179;52.094;4.408;2023-09-19T04:07:36;16.50;99.90
38398;DHT22;24179;52.094;4.408;2023-09-19T04:10:41;16.50;99.90
38398;DHT22;24179;52.094;4.408;2023-09-19T04:13:42;16.60;99.90
38398;DHT22;24179;52.094;4.408;2023-09-19T04:16:42;16.50;99.90
38398;DHT22;24179;52.094;4.408;2023-09-19T04:19:45;16.50;99.90
38398;DHT22;24179;52.094;4.408;2023-09-19T04:22:46;16.40;99.90
38398;DHT22;24179;52.094;4.408;2023-09-19T04:25:47;16.40;99.90
38398;DHT22;24179;52.094;4.408;2023-09-19T04:28:48;16.30;99.90
38398;DHT22;24179;52.094;4.408;2023-09-19T04:31:51;16.30;99.90
38398;DHT22;24179;52.094;4.408;2023-09-19T04:34:52;16.30;99.90
38398;DHT22;24179;52.094;4.408;2023-09-19T04:37:54;16.30;99.90
38398;DHT22;24179;52.094;4.408;2023-09-19T04:40:57;16.30;99.90
38398;DHT22;24179;52.094;4.408;2023-09-19T04:43:59;16.40;99.90
38398;DHT22;24179;52.094;4.408;2023-09-19T04:47:00;16.30;99.90
38398;DHT22;24179;52.094;4.408;2023-09-19T04:50:00;16.30;99.90
38398;DHT22;24179;52.094;4.408;2023-09-19T04:53:04;16.30;99.90
38398;DHT22;24179;52.094;4.408;2023-09-19T04:56:07;16.20;99.90
38398;DHT22;24179;52.094;4.408;2023-09-19T04:59:08;16.40;99.90
38398;DHT22;24179;52.094;4.408;2023-09-19T05:02:10;16.30;99.90
38398;DHT22;24179;52.094;4.408;2023-09-19T05:05:12;16.30;99.90
38398;DHT22;24179;52.094;4.408;2023-09-19T05:08:17;16.20;99.90
38398;DHT22;24179;52.094;4.408;2023-09-19T05:11:18;16.20;99.90
38398;DHT22;24179;52.094;4.408;2023-09-19T05:14:19;16.10;99.90
38398;DHT22;24179;52.094;4.408;2023-09-19T05:17:20;16.10;99.90
38398;DHT22;24179;52.094;4.408;2023-09-19T05:20:20;16.10;99.90
38398;DHT22;24179;52.094;4.408;2023-09-19T05:23:31;16.10;99.90
38398;DHT22;24179;52.094;4.408;2023-09-19T05:26:32;16.20;99.90
38398;DHT22;24179;52.094;4.408;2023-09-19T05:29:35;16.20;99.90
38398;DHT22;24179;52.094;4.408;2023-09-19T05:32:36;16.20;99.90
38398;DHT22;24179;52.094;4.408;2023-09-19T05:35:36;16.20;99.90
38398;DHT22;24179;52.094;4.408;2023-09-19T05:38:42;16.20;99.90
38398;DHT22;24179;52.094;4.408;2023-09-19T05:41:42;16.30;99.90
38398;DHT22;24179;52.094;4.408;2023-09-19T05:44:43;16.30;99.90
38398;DHT22;24179;52.094;4.408;2023-09-19T05:47:43;16.40;99.90
38398;DHT22;24179;52.094;4.408;2023-09-19T05:50:45;16.40;99.90
38398;DHT22;24179;52.094;4.408;2023-09-19T05:53:49;16.50;99.90
38398;DHT22;24179;52.094;4.408;2023-09-19T05:56:50;16.60;99.90
38398;DHT22;24179;52.094;4.408;2023-09-19T05:59:53;16.60;99.90
38398;DHT22;24179;52.094;4.408;2023-09-19T06:02:54;16.50;99.90
38398;DHT22;24179;52.094;4.408;2023-09-19T06:05:55;16.60;99.90
38398;DHT22;24179;52.094;4.408;2023-09-19T06:08:57;16.50;99.90
38398;DHT22;24179;52.094;4.408;2023-09-19T06:11:58;16.60;99.90
38398;DHT22;24179;52.094;4.408;2023-09-19T06:15:00;16.70;99.90
38398;DHT22;24179;52.094;4.408;2023-09-19T06:18:01;16.70;99.90
38398;DHT22;24179;52.094;4.408;2023-09-19T06:21:02;16.70;99.90
38398;DHT22;24179;52.094;4.408;2023-09-19T06:24:07;16.70;99.90
38398;DHT22;24179;52.094;4.408;2023-09-19T06:27:08;16.80;99.90
38398;DHT22;24179;52.094;4.408;2023-09-19T06:30:09;16.80;99.90
38398;DHT22;24179;52.094;4.408;2023-09-19T06:33:12;16.90;99.90
38398;DHT22;24179;52.094;4.408;2023-09-19T06:36:13;16.90;99.90
38398;DHT22;24179;52.094;4.408;2023-09-19T06:39:13;16.90;99.90
38398;DHT22;24179;52.094;4.408;2023-09-19T06:42:14;17.00;99.90
38398;DHT22;24179;52.094;4.408;2023-09-19T06:45:16;16.90;99.90
38398;DHT22;24179;52.094;4.408;2023-09-19T06:48:20;16.90;99.90
38398;DHT22;24179;52.094;4.408;2023-09-19T06:51:21;17.00;99.90
38398;DHT22;24179;52.094;4.408;2023-09-19T06:54:21;17.00;99.90
38398;DHT22;24179;52.094;4.408;2023-09-19T06:57:22;17.10;99.90
38398;DHT22;24179;52.094;4.408;2023-09-19T07:00:25;17.10;99.90
38398;DHT22;24179;52.094;4.408;2023-09-19T07:03:26;17.20;99.90
38398;DHT22;24179;52.094;4.408;2023-09-19T07:06:28;17.10;99.90
